Time;durP1;ratioP1;P1;durP2;ratioP2;P2;SDS_P1;SDS_P2;PMS_P1;PMS_P2;Temp;Humidity;BMP_temperature;BMP_pressure;BME280_temperature;BME280_humidity;BME280_pressure;Samples;Min_cycle;Max_cycle;Signal;HPM_P1;HPM_P2
2022/05/17 00:01:15;;;;;;;0.70;0.70;;;15.00;99.90;;;;;;5093547;28;20464;-81
2022/05/17 00:03:44;;;;;;;0.63;0.63;;;15.00;99.90;;;;;;5093722;28;20436;-81
2022/05/17 00:06:12;;;;;;;0.30;0.30;;;15.00;99.90;;;;;;5093388;28;20969;-84
2022/05/17 00:08:39;;;;;;;0.70;0.70;;;14.90;99.90;;;;;;5093825;28;20830;-84
2022/05/17 00:11:07;;;;;;;2.20;0.53;;;14.90;99.90;;;;;;5093345;28;21035;-85
2022/05/17 00:13:34;;;;;;;1.43;0.50;;;14.80;99.90;;;;;;5093555;28;20444;-84
2022/05/17 00:16:01;;;;;;;0.50;0.40;;;14.80;99.90;;;;;;5094060;28;20448;-81
2022/05/17 00:18:28;;;;;;;1.13;0.97;;;14.80;99.90;;;;;;5093441;28;20487;-81
2022/05/17 00:20:56;;;;;;;0.40;0.40;;;14.80;99.90;;;;;;5093451;28;20476;-81
2022/05/17 00:23:25;;;;;;;0.60;0.50;;;14.70;99.90;;;;;;5093463;28;20455;-81
2022/05/17 00:25:53;;;;;;;0.57;0.57;;;14.70;99.90;;;;;;5093473;28;20451;-81
2022/05/17 00:28:21;;;;;;;0.80;0.40;;;14.70;99.90;;;;;;5093412;28;20451;-81
2022/05/17 00:30:49;;;;;;;0.70;0.40;;;14.70;99.90;;;;;;5092809;28;20475;-81
2022/05/17 00:33:16;;;;;;;1.67;0.40;;;14.70;99.90;;;;;;5093386;28;20448;-81
2022/05/17 00:35:45;;;;;;;0.40;0.30;;;14.70;99.90;;;;;;5093747;28;20444;-85
2022/05/17 00:38:12;;;;;;;0.80;0.40;;;14.70;99.90;;;;;;5093060;28;20476;-85
2022/05/17 00:40:41;;;;;;;0.40;0.30;;;14.70;99.90;;;;;;5093215;28;20594;-85
2022/05/17 00:43:09;;;;;;;0.40;0.30;;;14.70;99.90;;;;;;5075306;28;20822;-85
2022/05/17 00:45:39;;;;;;;1.03;0.50;;;14.70;99.90;;;;;;5093633;28;20444;-84
2022/05/17 00:48:06;;;;;;;0.97;0.40;;;14.70;99.90;;;;;;5093287;28;20440;-81
2022/05/17 00:50:36;;;;;;;0.50;0.50;;;14.70;99.90;;;;;;5093076;28;20471;-84
2022/05/17 00:53:09;;;;;;;0.80;0.40;;;14.70;99.90;;;;;;5093536;28;20452;-84
2022/05/17 00:55:43;;;;;;;0.67;0.50;;;14.70;99.90;;;;;;5093464;28;20432;-84
2022/05/17 00:58:19;;;;;;;1.00;0.50;;;14.70;99.90;;;;;;5093151;28;20456;-84
2022/05/17 01:00:51;;;;;;;0.60;0.40;;;14.60;99.90;;;;;;5093502;28;20464;-85
2022/05/17 01:03:21;;;;;;;0.70;0.70;;;14.60;99.90;;;;;;5093881;28;20436;-80
2022/05/17 01:05:53;;;;;;;0.50;0.40;;;14.50;99.90;;;;;;5093359;28;20443;-81
2022/05/17 01:08:21;;;;;;;0.40;0.30;;;14.50;99.90;;;;;;5093125;28;20435;-84
2022/05/17 01:10:49;;;;;;;0.40;0.40;;;14.50;99.90;;;;;;5092865;28;20479;-84
2022/05/17 01:16:00;;;;;;;0.60;0.60;;;14.50;99.90;;;;;;5093080;28;20763;-84
2022/05/17 01:18:30;;;;;;;0.40;0.40;;;14.40;99.90;;;;;;5092842;28;20490;-84
2022/05/17 01:20:58;;;;;;;0.40;0.40;;;14.40;99.90;;;;;;5092734;28;20819;-84
2022/05/17 01:23:25;;;;;;;0.57;0.57;;;14.30;99.90;;;;;;5092651;28;20450;-84
2022/05/17 01:25:52;;;;;;;1.80;0.40;;;14.30;99.90;;;;;;5092635;28;20432;-84
2022/05/17 01:28:22;;;;;;;0.57;0.40;;;14.30;99.90;;;;;;5092552;28;20845;-83
2022/05/17 01:30:49;;;;;;;1.57;0.70;;;14.20;99.90;;;;;;5092846;28;20467;-84
2022/05/17 01:33:17;;;;;;;0.40;0.30;;;14.20;99.90;;;;;;5092825;28;20466;-84
2022/05/17 01:35:44;;;;;;;0.63;0.40;;;14.20;99.90;;;;;;5092936;28;20454;-84
2022/05/17 01:38:13;;;;;;;0.40;0.40;;;14.20;99.90;;;;;;5092739;28;20487;-83
2022/05/17 01:40:41;;;;;;;0.63;0.53;;;14.20;99.90;;;;;;5092410;28;20479;-84
2022/05/17 01:43:08;;;;;;;0.33;0.30;;;14.20;99.90;;;;;;5094104;28;20455;-83
2022/05/17 01:45:35;;;;;;;0.60;0.40;;;14.10;99.90;;;;;;5096242;28;20436;-84
2022/05/17 01:48:02;;;;;;;0.40;0.40;;;14.10;99.90;;;;;;5096051;28;20950;-84
2022/05/17 01:50:29;;;;;;;0.30;0.30;;;14.10;99.90;;;;;;5096339;28;20479;-84
2022/05/17 01:52:57;;;;;;;0.60;0.60;;;14.00;99.90;;;;;;5096385;28;20444;-84
2022/05/17 01:55:25;;;;;;;0.50;0.43;;;14.00;99.90;;;;;;5096326;28;20812;-84
2022/05/17 01:57:51;;;;;;;0.80;0.50;;;14.00;99.90;;;;;;5087875;28;20483;-84
2022/05/17 02:00:20;;;;;;;0.93;0.50;;;14.00;99.90;;;;;;5095814;28;20495;-84
2022/05/17 02:02:47;;;;;;;0.40;0.40;;;14.00;99.90;;;;;;5096078;28;20542;-84
2022/05/17 02:05:14;;;;;;;0.40;0.30;;;14.00;99.90;;;;;;5096272;28;20533;-84
2022/05/17 02:07:41;;;;;;;0.40;0.30;;;14.00;99.90;;;;;;5096069;28;20448;-84
2022/05/17 02:10:09;;;;;;;0.60;0.40;;;14.00;99.90;;;;;;5095562;28;20993;-84
2022/05/17 02:12:37;;;;;;;2.97;0.47;;;14.00;99.90;;;;;;5095897;28;20440;-84
2022/05/17 02:15:06;;;;;;;1.23;0.40;;;13.90;99.90;;;;;;5095756;28;20850;-84
2022/05/17 02:17:35;;;;;;;0.43;0.40;;;14.00;99.90;;;;;;5095724;28;20483;-83
2022/05/17 02:20:02;;;;;;;8.63;0.53;;;14.00;99.90;;;;;;5095720;28;20444;-83
2022/05/17 02:22:29;;;;;;;0.43;0.40;;;14.00;99.90;;;;;;5095644;28;20783;-84
2022/05/17 02:24:55;;;;;;;0.60;0.50;;;14.00;99.90;;;;;;5095759;28;20455;-85
2022/05/17 02:27:22;;;;;;;0.63;0.63;;;14.00;99.90;;;;;;5095355;28;20984;-80
2022/05/17 02:29:50;;;;;;;0.43;0.40;;;14.00;99.90;;;;;;5095544;28;20443;-80
2022/05/17 02:32:17;;;;;;;1.07;0.53;;;13.90;99.90;;;;;;5095246;28;20973;-80
2022/05/17 02:34:44;;;;;;;1.77;0.70;;;13.90;99.90;;;;;;5095506;28;20440;-84
2022/05/17 02:37:11;;;;;;;0.60;0.60;;;13.90;99.90;;;;;;5095443;28;20479;-85
2022/05/17 02:39:37;;;;;;;1.80;1.00;;;13.90;99.90;;;;;;5095254;28;20455;-84
2022/05/17 02:42:05;;;;;;;0.70;0.70;;;13.90;99.90;;;;;;5095159;28;20975;-85
2022/05/17 02:44:32;;;;;;;0.70;0.70;;;13.90;99.90;;;;;;5095060;28;20451;-85
2022/05/17 02:47:00;;;;;;;0.50;0.50;;;13.80;99.90;;;;;;5095419;28;20456;-85
2022/05/17 02:49:27;;;;;;;0.50;0.50;;;13.80;99.90;;;;;;5095263;28;20853;-84
2022/05/17 02:51:54;;;;;;;0.83;0.80;;;13.80;99.90;;;;;;5095202;28;20459;-85
2022/05/17 02:54:21;;;;;;;1.80;0.80;;;13.80;99.90;;;;;;5095038;28;20982;-85
2022/05/17 02:56:48;;;;;;;0.77;0.60;;;13.80;99.90;;;;;;5095460;28;20798;-85
2022/05/17 02:59:18;;;;;;;0.40;0.40;;;13.80;99.90;;;;;;5094908;28;20817;-85
2022/05/17 03:01:45;;;;;;;3.17;0.63;;;13.80;99.90;;;;;;5094920;28;20587;-85
2022/05/17 03:04:13;;;;;;;1.07;0.57;;;13.80;99.90;;;;;;5095046;28;20458;-85
2022/05/17 03:06:40;;;;;;;0.43;0.37;;;13.80;99.90;;;;;;5094931;28;20451;-85
2022/05/17 03:09:08;;;;;;;0.50;0.50;;;13.80;99.90;;;;;;5094562;28;20441;-84
2022/05/17 03:11:35;;;;;;;0.70;0.70;;;13.70;99.90;;;;;;5094812;28;20468;-85
2022/05/17 03:14:01;;;;;;;0.60;0.40;;;13.80;99.90;;;;;;5094845;28;20432;-85
2022/05/17 03:16:32;;;;;;;0.60;0.60;;;13.70;99.90;;;;;;5094593;28;20435;-85
2022/05/17 03:18:59;;;;;;;1.43;0.40;;;13.70;99.90;;;;;;5094550;28;20487;-85
2022/05/17 03:21:28;;;;;;;0.57;0.33;;;13.70;99.90;;;;;;5094369;28;20471;-84
2022/05/17 03:23:55;;;;;;;0.63;0.60;;;13.70;99.90;;;;;;5094653;28;20456;-85
2022/05/17 03:26:22;;;;;;;0.43;0.43;;;13.60;99.90;;;;;;5094233;28;20448;-85
2022/05/17 03:28:49;;;;;;;0.67;0.40;;;13.60;99.90;;;;;;5094447;28;20444;-85
2022/05/17 03:31:16;;;;;;;0.60;0.60;;;13.50;99.90;;;;;;5094359;28;20468;-85
2022/05/17 03:33:43;;;;;;;1.03;0.60;;;13.50;99.90;;;;;;5094461;28;20455;-85
2022/05/17 03:36:11;;;;;;;0.50;0.50;;;13.50;99.90;;;;;;5094400;28;20432;-85
2022/05/17 03:38:39;;;;;;;0.77;0.50;;;13.40;99.90;;;;;;5094149;28;20843;-84
2022/05/17 03:41:05;;;;;;;0.67;0.67;;;13.40;99.90;;;;;;5093963;28;20482;-85
2022/05/17 03:43:32;;;;;;;0.40;0.37;;;13.40;99.90;;;;;;5094674;28;20458;-84
2022/05/17 03:45:59;;;;;;;0.60;0.30;;;13.40;99.90;;;;;;5094246;28;20507;-84
2022/05/17 03:48:28;;;;;;;0.80;0.70;;;13.30;99.90;;;;;;5094292;28;20463;-85
2022/05/17 03:50:55;;;;;;;0.50;0.50;;;13.30;99.90;;;;;;5093845;28;20468;-84
2022/05/17 03:53:23;;;;;;;0.83;0.60;;;13.30;99.90;;;;;;5094171;28;20444;-85
2022/05/17 03:55:51;;;;;;;1.90;1.43;;;13.30;99.90;;;;;;5093767;28;20432;-85
2022/05/17 03:58:17;;;;;;;0.90;0.70;;;13.30;99.90;;;;;;5093887;28;20487;-85
2022/05/17 04:00:44;;;;;;;0.73;0.50;;;13.30;99.90;;;;;;5093773;28;20464;-85
2022/05/17 04:03:11;;;;;;;1.13;0.40;;;13.30;99.90;;;;;;5094377;28;20448;-85
2022/05/17 04:05:38;;;;;;;0.90;0.70;;;13.40;99.90;;;;;;5093430;28;20436;-85
2022/05/17 04:08:05;;;;;;;0.60;0.60;;;13.40;99.90;;;;;;5093643;28;20970;-85
2022/05/17 04:10:31;;;;;;;0.50;0.50;;;13.40;99.90;;;;;;5093640;28;20467;-85
2022/05/17 04:12:59;;;;;;;1.13;0.90;;;13.40;99.90;;;;;;5093646;28;20439;-85
2022/05/17 04:15:26;;;;;;;0.43;0.43;;;13.50;99.90;;;;;;5093783;28;20440;-85
2022/05/17 04:17:54;;;;;;;0.53;0.40;;;13.50;99.90;;;;;;5094240;28;20810;-85
2022/05/17 04:20:21;;;;;;;1.60;1.50;;;13.50;99.90;;;;;;5093237;28;20566;-85
2022/05/17 04:22:50;;;;;;;0.30;0.30;;;13.50;99.90;;;;;;5093294;28;20432;-85
2022/05/17 04:25:18;;;;;;;1.27;0.70;;;13.50;99.90;;;;;;5094051;28;20455;-85
2022/05/17 04:27:46;;;;;;;0.60;0.60;;;13.50;99.90;;;;;;5093309;28;20439;-85
2022/05/17 04:30:14;;;;;;;1.70;1.03;;;13.50;99.90;;;;;;5093082;28;20981;-85
2022/05/17 04:32:41;;;;;;;0.50;0.50;;;13.60;99.90;;;;;;5093124;28;20451;-84
2022/05/17 04:35:09;;;;;;;0.47;0.40;;;13.70;99.90;;;;;;5093101;28;20820;-85
2022/05/17 04:37:37;;;;;;;0.83;0.40;;;13.70;99.90;;;;;;5093629;28;20451;-84
2022/05/17 04:40:04;;;;;;;1.03;0.50;;;13.80;99.90;;;;;;5093295;28;20521;-84
2022/05/17 04:42:31;;;;;;;0.50;0.50;;;13.80;99.90;;;;;;5093450;28;20493;-84
2022/05/17 04:44:58;;;;;;;0.50;0.30;;;13.80;99.90;;;;;;5093095;28;20455;-84
2022/05/17 04:47:26;;;;;;;0.87;0.50;;;13.80;99.90;;;;;;5093421;28;20455;-84
2022/05/17 04:49:53;;;;;;;0.77;0.60;;;13.80;99.90;;;;;;5093011;28;20432;-84
2022/05/17 04:52:19;;;;;;;2.83;0.70;;;13.90;99.90;;;;;;5093260;28;20814;-84
2022/05/17 04:54:46;;;;;;;0.60;0.60;;;13.90;99.90;;;;;;5093296;28;20530;-84
2022/05/17 04:57:13;;;;;;;0.60;0.60;;;14.00;99.90;;;;;;5092955;28;20796;-84
2022/05/17 04:59:39;;;;;;;0.60;0.60;;;14.10;99.90;;;;;;5093136;28;20486;-84
2022/05/17 05:02:07;;;;;;;0.90;0.50;;;14.10;99.90;;;;;;5093136;28;20490;-84
2022/05/17 05:04:35;;;;;;;1.63;0.80;;;14.10;99.90;;;;;;5093161;28;20432;-83
2022/05/17 05:07:02;;;;;;;0.40;0.40;;;14.20;99.90;;;;;;5093170;28;20443;-84
2022/05/17 05:09:28;;;;;;;0.83;0.50;;;14.20;99.90;;;;;;5093326;28;20807;-84
2022/05/17 05:11:55;;;;;;;1.07;0.97;;;14.30;99.90;;;;;;5092836;28;20467;-84
2022/05/17 05:14:22;;;;;;;3.13;0.80;;;14.30;99.90;;;;;;5093146;28;20455;-84
2022/05/17 05:16:49;;;;;;;0.60;0.57;;;14.40;99.90;;;;;;5093070;28;20486;-84
2022/05/17 05:19:15;;;;;;;0.47;0.47;;;14.40;99.90;;;;;;5096079;28;20483;-84
2022/05/17 05:21:43;;;;;;;0.53;0.40;;;14.50;99.90;;;;;;5096951;28;20463;-84
2022/05/17 05:24:11;;;;;;;0.90;0.60;;;14.60;99.90;;;;;;5096804;28;20428;-84
2022/05/17 05:26:39;;;;;;;1.80;0.67;;;14.70;99.90;;;;;;5096928;28;20451;-84
2022/05/17 05:29:06;;;;;;;0.97;0.50;;;14.70;99.90;;;;;;5096884;28;20439;-84
2022/05/17 05:31:33;;;;;;;0.83;0.47;;;14.80;99.90;;;;;;5096702;28;20498;-84
2022/05/17 05:34:00;;;;;;;1.23;0.83;;;14.90;99.90;;;;;;5096797;28;20451;-84
2022/05/17 05:36:28;;;;;;;1.90;0.90;;;15.00;99.90;;;;;;5096715;28;20483;-84
2022/05/17 05:38:57;;;;;;;0.50;0.50;;;15.10;99.90;;;;;;5096511;28;20487;-84
2022/05/17 05:41:24;;;;;;;2.53;0.83;;;15.20;99.90;;;;;;5096247;28;20479;-84
2022/05/17 05:43:51;;;;;;;0.90;0.80;;;15.30;99.90;;;;;;5096267;28;20973;-84
2022/05/17 05:46:17;;;;;;;0.80;0.80;;;15.40;99.90;;;;;;5096218;28;20812;-84
2022/05/17 05:48:44;;;;;;;1.47;0.93;;;15.60;99.90;;;;;;5096737;28;20440;-84
2022/05/17 05:51:11;;;;;;;0.80;0.60;;;15.70;99.90;;;;;;5096262;28;20456;-83
2022/05/17 05:53:38;;;;;;;0.83;0.53;;;15.90;99.90;;;;;;5096344;28;20534;-84
2022/05/17 05:56:07;;;;;;;4.00;0.83;;;16.00;99.90;;;;;;5096330;28;20444;-84
2022/05/17 05:58:37;;;;;;;0.77;0.70;;;16.20;99.90;;;;;;5096272;28;20490;-84
2022/05/17 06:01:04;;;;;;;0.97;0.60;;;16.40;99.90;;;;;;5096236;28;20471;-84
2022/05/17 06:03:32;;;;;;;1.90;1.50;;;16.60;99.90;;;;;;5096257;28;20459;-84
2022/05/17 06:05:58;;;;;;;0.93;0.80;;;16.80;99.90;;;;;;5096009;28;20513;-84
2022/05/17 06:08:25;;;;;;;0.47;0.40;;;17.00;99.90;;;;;;5096112;28;20440;-84
2022/05/17 06:10:52;;;;;;;1.00;0.60;;;17.30;99.90;;;;;;5095833;28;20475;-84
2022/05/17 06:13:20;;;;;;;2.30;1.40;;;17.50;99.90;;;;;;5095979;28;20536;-84
2022/05/17 06:15:48;;;;;;;0.77;0.50;;;17.70;99.90;;;;;;5095684;28;20432;-84
2022/05/17 06:18:15;;;;;;;0.77;0.77;;;17.90;99.90;;;;;;5095699;28;20472;-85
2022/05/17 06:20:42;;;;;;;0.60;0.50;;;18.10;99.90;;;;;;5095578;28;20980;-85
2022/05/17 06:23:10;;;;;;;2.13;0.93;;;18.40;99.90;;;;;;5095734;28;20799;-85
2022/05/17 06:25:37;;;;;;;1.30;1.30;;;18.70;99.90;;;;;;5096017;28;20452;-85
2022/05/17 06:28:04;;;;;;;2.10;1.40;;;18.90;99.90;;;;;;5095658;28;20451;-85
2022/05/17 06:30:32;;;;;;;4.20;1.00;;;19.10;99.90;;;;;;5095365;28;20471;-86
2022/05/17 06:33:00;;;;;;;2.03;1.10;;;19.20;99.90;;;;;;5095518;28;20954;-86
2022/05/17 06:35:28;;;;;;;1.20;1.00;;;19.40;99.90;;;;;;5095719;28;20448;-86
2022/05/17 06:37:55;;;;;;;1.37;0.93;;;19.60;99.90;;;;;;5095382;28;20781;-81
2022/05/17 06:40:22;;;;;;;1.00;0.90;;;19.80;99.90;;;;;;5095265;28;20495;-86
2022/05/17 06:42:49;;;;;;;0.93;0.93;;;20.10;99.90;;;;;;5095798;28;20462;-86
2022/05/17 06:45:17;;;;;;;0.80;0.80;;;20.40;99.90;;;;;;5095223;28;20447;-86
2022/05/17 06:47:45;;;;;;;1.83;0.97;;;20.40;99.90;;;;;;5095463;28;20201;-86
2022/05/17 06:50:12;;;;;;;1.77;1.43;;;20.70;99.90;;;;;;5094947;28;20707;-86
2022/05/17 06:52:39;;;;;;;2.55;0.90;;;20.90;99.90;;;;;;5095247;28;20209;-86
2022/05/17 06:55:07;;;;;;;1.90;1.02;;;21.00;99.90;;;;;;5094879;28;20668;-86
2022/05/17 06:57:35;;;;;;;2.03;1.45;;;21.20;99.90;;;;;;5095300;28;20259;-86
2022/05/17 07:00:05;;;;;;;0.90;0.90;;;21.20;99.90;;;;;;5095037;28;20224;-86
2022/05/17 07:02:32;;;;;;;1.00;1.00;;;21.30;99.90;;;;;;5095161;28;20186;-86
2022/05/17 07:05:00;;;;;;;3.15;0.80;;;21.60;99.90;;;;;;5094800;28;20209;-87
2022/05/17 07:07:27;;;;;;;2.53;1.00;;;21.60;99.90;;;;;;5094825;28;20201;-87
2022/05/17 07:15:23;;;;;;;2.28;1.35;;;22.00;99.90;;;;;;5094913;28;20184;-86
2022/05/17 07:17:50;;;;;;;2.05;1.38;;;22.10;99.90;;;;;;5094475;28;20296;-86
2022/05/17 07:20:18;;;;;;;2.53;0.88;;;22.30;99.90;;;;;;5094846;28;20227;-86
2022/05/17 07:22:45;;;;;;;2.05;1.45;;;22.60;99.90;;;;;;5094446;28;20664;-86
2022/05/17 07:25:12;;;;;;;1.30;1.20;;;23.00;99.90;;;;;;5094416;28;20194;-87
2022/05/17 07:27:39;;;;;;;2.20;1.30;;;23.20;99.90;;;;;;5094303;28;20205;-87
2022/05/17 07:30:07;;;;;;;1.35;1.00;;;23.30;99.90;;;;;;5094311;28;20657;-86
2022/05/17 07:32:34;;;;;;;1.77;1.33;;;23.60;99.90;;;;;;5094492;28;20232;-87
2022/05/17 07:35:01;;;;;;;1.35;1.00;;;23.70;99.90;;;;;;5094400;28;20196;-87
2022/05/17 07:37:29;;;;;;;1.25;1.08;;;24.00;99.90;;;;;;5094422;28;20208;-87
2022/05/17 07:39:56;;;;;;;0.88;0.88;;;24.60;99.90;;;;;;5093771;28;20231;-87
2022/05/17 07:42:23;;;;;;;1.13;1.00;;;24.90;99.90;;;;;;5093885;28;20193;-87
2022/05/17 07:44:50;;;;;;;1.80;1.20;;;25.40;99.90;;;;;;5094437;28;20206;-87
2022/05/17 07:47:17;;;;;;;1.30;1.20;;;26.00;99.90;;;;;;5094220;28;20201;-86
2022/05/17 07:49:44;;;;;;;1.52;1.10;;;26.70;99.90;;;;;;5094246;28;20556;-87
2022/05/17 07:52:11;;;;;;;0.98;0.90;;;27.10;99.90;;;;;;5094118;28;20228;-87
2022/05/17 07:54:41;;;;;;;0.90;0.90;;;27.20;99.90;;;;;;5093723;28;20209;-87
2022/05/17 07:57:08;;;;;;;1.08;1.08;;;27.70;99.90;;;;;;5094295;28;20253;-87
2022/05/17 07:59:35;;;;;;;2.53;1.88;;;28.20;99.40;;;;;;5093604;28;20232;-87
2022/05/17 08:02:02;;;;;;;1.10;1.00;;;28.80;97.00;;;;;;5094055;28;20221;-86
2022/05/17 08:04:29;;;;;;;1.38;1.08;;;29.50;95.30;;;;;;5093690;28;20187;-86
2022/05/17 08:06:57;;;;;;;0.93;0.93;;;30.00;93.30;;;;;;5093976;28;20321;-87
2022/05/17 08:09:24;;;;;;;1.30;1.17;;;30.00;90.60;;;;;;5094394;28;20697;-85
2022/05/17 08:11:52;;;;;;;1.42;1.25;;;29.80;90.60;;;;;;5093963;28;20631;-87
2022/05/17 08:14:19;;;;;;;1.70;1.60;;;29.30;89.60;;;;;;5093580;28;20189;-86
2022/05/17 08:16:46;;;;;;;1.48;1.25;;;28.40;90.10;;;;;;5093713;28;20200;-87
2022/05/17 08:19:13;;;;;;;1.27;1.17;;;28.00;91.40;;;;;;5093393;28;20216;-87
2022/05/17 08:21:42;;;;;;;1.30;1.20;;;27.50;91.00;;;;;;5093508;28;20286;-87
2022/05/17 08:24:09;;;;;;;2.28;1.27;;;27.10;91.80;;;;;;5093480;28;20658;-87
2022/05/17 08:29:21;;;;;;;1.20;1.20;;;26.50;92.10;;;;;;5093831;28;20657;-87
2022/05/17 08:33:14;;;;;;;1.63;1.10;;;26.30;92.50;;;;;;5093243;28;20221;-86
2022/05/17 08:34:34;;;;;;;0.93;0.80;;;26.20;92.80;;;;;;5093104;28;20687;-87
2022/05/17 08:37:00;;;;;;;1.00;1.00;;;25.90;93.00;;;;;;5093287;28;20248;-86
2022/05/17 08:39:28;;;;;;;1.27;1.00;;;25.90;93.70;;;;;;5093499;28;20222;-87
2022/05/17 08:41:59;;;;;;;1.00;1.00;;;25.70;93.10;;;;;;5092979;28;20705;-87
2022/05/17 08:44:41;;;;;;;0.80;0.70;;;25.60;93.80;;;;;;5093600;28;20197;-87
2022/05/17 08:47:12;;;;;;;1.25;1.15;;;25.40;93.60;;;;;;5087667;28;20186;-86
2022/05/17 08:49:44;;;;;;;2.67;0.88;;;25.10;94.40;;;;;;5093555;28;20635;-87
2022/05/17 08:52:15;;;;;;;0.90;0.90;;;25.00;94.60;;;;;;5094792;28;20338;-86
2022/05/17 08:54:52;;;;;;;1.08;0.90;;;24.90;94.80;;;;;;5097803;28;20173;-85
2022/05/17 08:57:25;;;;;;;2.38;1.17;;;25.10;94.10;;;;;;5097962;28;20192;-85
2022/05/17 08:59:54;;;;;;;0.75;0.75;;;25.20;94.40;;;;;;5097457;28;20201;-85
2022/05/17 09:02:27;;;;;;;1.25;1.17;;;25.20;94.30;;;;;;5097557;28;20209;-86
2022/05/17 09:05:04;;;;;;;1.42;1.27;;;25.10;94.80;;;;;;5097276;28;20178;-86
2022/05/17 09:07:40;;;;;;;1.42;1.02;;;25.00;94.50;;;;;;5097610;28;20552;-85
2022/05/17 09:10:18;;;;;;;1.08;0.90;;;25.00;94.70;;;;;;5097228;28;20184;-85
2022/05/17 09:12:51;;;;;;;1.15;1.05;;;25.10;94.10;;;;;;5097320;28;20228;-85
2022/05/17 09:15:19;;;;;;;1.52;1.42;;;25.20;94.00;;;;;;5097229;28;20185;-86
2022/05/17 09:17:47;;;;;;;1.13;1.02;;;25.20;94.00;;;;;;5096898;28;20279;-85
2022/05/17 09:20:18;;;;;;;1.35;1.25;;;25.20;93.20;;;;;;5097066;28;20225;-85
2022/05/17 09:22:45;;;;;;;3.80;1.45;;;24.90;94.50;;;;;;5097075;28;20184;-85
2022/05/17 09:25:18;;;;;;;1.05;1.00;;;24.90;94.90;;;;;;5097024;28;20205;-85
2022/05/17 09:27:49;;;;;;;1.52;1.00;;;25.10;93.60;;;;;;5096969;28;20201;-85
2022/05/17 09:30:31;;;;;;;1.13;1.02;;;25.20;93.00;;;;;;5096654;28;20769;-85
2022/05/17 09:33:01;;;;;;;1.25;0.95;;;25.20;93.60;;;;;;5096914;28;20185;-86
2022/05/17 09:35:28;;;;;;;1.08;1.08;;;25.10;93.60;;;;;;5096789;28;20178;-85
2022/05/17 09:37:59;;;;;;;1.08;0.98;;;25.20;94.00;;;;;;5096795;28;20205;-85
2022/05/17 09:40:29;;;;;;;1.95;0.90;;;25.30;94.00;;;;;;5096848;28;20233;-85
2022/05/17 09:43:04;;;;;;;0.98;0.88;;;25.40;93.40;;;;;;5096420;28;20194;-85
2022/05/17 09:45:46;;;;;;;5.82;1.25;;;25.40;93.10;;;;;;5096680;28;20197;-85
2022/05/17 09:48:31;;;;;;;1.50;1.00;;;25.40;92.80;;;;;;5097466;28;20197;-86
2022/05/17 09:53:44;;;;;;;1.42;1.15;;;25.50;91.70;;;;;;5096939;28;20185;-86
2022/05/17 09:56:13;;;;;;;0.90;0.90;;;25.60;91.90;;;;;;5096447;28;20209;-85
2022/05/17 09:58:42;;;;;;;1.50;0.90;;;25.70;91.60;;;;;;5096427;28;20201;-85
2022/05/17 10:01:15;;;;;;;2.28;1.35;;;25.60;91.30;;;;;;5096856;28;20225;-82
2022/05/17 10:03:44;;;;;;;0.73;0.73;;;25.60;91.50;;;;;;5095656;28;20190;-85
2022/05/17 10:06:16;;;;;;;1.13;0.70;;;25.40;92.70;;;;;;5096176;28;20208;-85
2022/05/17 10:08:47;;;;;;;0.75;0.75;;;25.20;93.60;;;;;;5096197;28;20193;-85
2022/05/17 10:11:18;;;;;;;1.15;1.05;;;25.00;94.90;;;;;;5095613;28;20635;-85
2022/05/17 10:14:01;;;;;;;1.00;0.90;;;24.80;94.50;;;;;;5096039;28;20174;-84
2022/05/17 10:16:37;;;;;;;1.40;1.08;;;24.60;94.30;;;;;;5096111;28;20597;-85
2022/05/17 10:19:11;;;;;;;2.03;1.38;;;24.30;94.60;;;;;;5096369;28;20174;-85
2022/05/17 10:21:44;;;;;;;0.82;0.80;;;24.20;95.20;;;;;;5095849;28;20225;-84
2022/05/17 10:24:20;;;;;;;0.95;0.90;;;24.10;95.70;;;;;;5095928;28;20190;-85
2022/05/17 10:26:50;;;;;;;1.42;1.33;;;23.80;93.30;;;;;;5095782;28;20192;-87
2022/05/17 10:29:26;;;;;;;1.85;1.13;;;23.60;94.00;;;;;;5096508;28;20613;-86
2022/05/17 10:32:01;;;;;;;1.10;0.90;;;23.60;93.00;;;;;;5095685;28;20223;-86
2022/05/17 10:34:37;;;;;;;0.77;0.60;;;23.70;91.40;;;;;;5095587;28;20201;-86
2022/05/17 10:37:06;;;;;;;0.68;0.68;;;23.90;91.20;;;;;;5095375;28;20188;-86
2022/05/17 10:39:42;;;;;;;0.73;0.70;;;24.20;88.60;;;;;;5095208;28;20292;-85
2022/05/17 10:42:09;;;;;;;1.33;0.90;;;24.40;90.00;;;;;;5094964;28;20225;-86
2022/05/17 10:44:41;;;;;;;1.88;1.15;;;24.60;90.00;;;;;;5095160;28;20201;-85
2022/05/17 10:47:19;;;;;;;0.95;0.85;;;24.70;88.30;;;;;;5095484;28;20193;-85
2022/05/17 10:50:00;;;;;;;0.60;0.60;;;24.90;89.30;;;;;;5095544;28;20186;-85
2022/05/17 10:52:37;;;;;;;1.15;0.88;;;25.20;88.00;;;;;;5095415;28;20201;-85
2022/05/17 10:55:12;;;;;;;1.20;0.93;;;25.40;87.90;;;;;;5095071;28;20188;-85
2022/05/17 10:57:48;;;;;;;0.60;0.60;;;25.30;86.60;;;;;;5095320;28;20280;-85
2022/05/17 11:00:18;;;;;;;0.70;0.70;;;25.40;89.50;;;;;;5095033;28;20236;-85
2022/05/17 11:03:22;;;;;;;1.25;1.10;;;25.50;84.50;;;;;;5095147;28;20201;-85
2022/05/17 11:06:02;;;;;;;1.30;0.77;;;25.60;86.30;;;;;;5094921;28;20181;-85
2022/05/17 11:08:40;;;;;;;0.80;0.80;;;25.60;87.20;;;;;;5094771;28;20280;-85
2022/05/17 11:11:23;;;;;;;1.23;1.13;;;25.70;86.60;;;;;;5094544;28;20221;-85
2022/05/17 11:13:55;;;;;;;4.50;1.15;;;25.70;87.50;;;;;;5094756;28;20181;-85
2022/05/17 11:16:27;;;;;;;1.63;1.17;;;25.70;86.80;;;;;;5093681;28;20181;-86
2022/05/17 11:18:59;;;;;;;1.00;0.80;;;25.50;84.30;;;;;;5095013;28;20574;-86
2022/05/17 11:21:32;;;;;;;0.90;0.80;;;25.40;80.80;;;;;;5094796;28;20228;-86
2022/05/17 11:24:14;;;;;;;1.13;0.63;;;25.30;82.50;;;;;;5094935;28;20641;-86
2022/05/17 11:27:06;;;;;;;0.77;0.77;;;25.30;82.30;;;;;;5095032;28;20209;-85
2022/05/17 11:29:55;;;;;;;1.75;0.88;;;25.30;82.80;;;;;;5094893;28;20213;-86
2022/05/17 11:32:28;;;;;;;0.75;0.73;;;25.20;84.10;;;;;;5094594;28;20200;-85
2022/05/17 11:34:56;;;;;;;0.95;0.65;;;25.20;83.60;;;;;;5094456;28;20185;-86
2022/05/17 11:37:50;;;;;;;1.08;0.98;;;25.10;84.70;;;;;;5095063;28;20197;-86
2022/05/17 11:40:50;;;;;;;1.00;1.00;;;25.10;86.40;;;;;;5070291;28;20581;-85
2022/05/17 11:46:42;;;;;;;1.15;0.90;;;25.20;88.50;;;;;;5047199;28;20266;-86
2022/05/17 11:49:31;;;;;;;1.00;0.80;;;25.20;86.60;;;;;;5086804;28;20204;-82
2022/05/17 11:52:35;;;;;;;0.70;0.60;;;25.20;83.10;;;;;;5093945;28;20297;-84
2022/05/17 11:55:10;;;;;;;0.60;0.52;;;25.20;80.60;;;;;;5094145;28;20229;-84
2022/05/17 11:58:04;;;;;;;1.55;0.73;;;25.00;80.40;;;;;;5094170;28;20192;-85
2022/05/17 12:00:41;;;;;;;0.70;0.70;;;24.90;80.40;;;;;;5094565;28;20279;-84
2022/05/17 12:03:40;;;;;;;3.45;0.77;;;24.60;81.70;;;;;;5094182;28;20181;-86
2022/05/17 12:06:10;;;;;;;0.60;0.60;;;24.50;83.70;;;;;;5093995;28;20201;-86
2022/05/17 12:08:43;;;;;;;1.35;0.68;;;24.20;85.10;;;;;;5094061;28;20566;-86
2022/05/17 12:11:25;;;;;;;1.95;0.70;;;24.10;87.00;;;;;;5095246;28;20213;-86
2022/05/17 12:13:56;;;;;;;0.60;0.60;;;24.00;83.00;;;;;;5086273;28;20193;-86
2022/05/17 12:16:25;;;;;;;0.80;0.60;;;23.90;83.00;;;;;;5094199;28;20193;-86
2022/05/17 12:18:55;;;;;;;1.98;1.20;;;23.80;81.80;;;;;;5093971;28;20190;-86
2022/05/17 12:21:37;;;;;;;0.60;0.60;;;23.80;81.50;;;;;;5093896;28;20236;-86
2022/05/17 12:24:18;;;;;;;0.80;0.60;;;23.90;82.10;;;;;;5093912;28;20193;-85
2022/05/17 12:27:10;;;;;;;0.77;0.50;;;23.80;84.40;;;;;;5093111;28;20665;-85
2022/05/17 12:32:28;;;;;;;0.75;0.70;;;23.70;84.50;;;;;;5093775;28;20184;-85
2022/05/17 12:34:57;;;;;;;0.80;0.80;;;23.70;85.90;;;;;;5093779;28;20258;-85
2022/05/17 12:37:27;;;;;;;0.60;0.52;;;23.80;83.80;;;;;;5093528;28;20238;-86
2022/05/17 12:45:29;;;;;;;1.08;0.73;;;23.90;79.20;;;;;;5093635;28;20192;-87
2022/05/17 12:47:58;;;;;;;0.70;0.60;;;23.90;79.20;;;;;;5093561;28;20189;-86
2022/05/17 12:50:41;;;;;;;0.50;0.50;;;23.90;78.90;;;;;;5093742;28;20229;-87
2022/05/17 12:53:14;;;;;;;0.45;0.45;;;23.90;76.20;;;;;;5093533;28;20189;-86
2022/05/17 12:55:41;;;;;;;3.15;0.60;;;23.80;77.40;;;;;;5093394;28;20178;-86
2022/05/17 12:58:15;;;;;;;2.17;0.60;;;23.70;79.20;;;;;;5093606;28;20185;-86
2022/05/17 13:00:43;;;;;;;0.50;0.50;;;23.70;77.90;;;;;;5093153;28;20229;-86
2022/05/17 13:03:18;;;;;;;0.50;0.50;;;23.70;76.90;;;;;;5093382;28;20198;-87
2022/05/17 13:05:48;;;;;;;0.70;0.60;;;23.60;78.80;;;;;;5093638;28;20182;-86
2022/05/17 13:08:20;;;;;;;0.73;0.73;;;23.60;79.20;;;;;;5093781;28;20278;-86
2022/05/17 13:10:59;;;;;;;1.87;0.97;;;23.60;83.30;;;;;;5093499;28;20217;-85
2022/05/17 13:13:28;;;;;;;0.60;0.60;;;23.60;84.20;;;;;;5093240;28;20648;-87
2022/05/17 13:15:58;;;;;;;1.03;0.70;;;23.50;84.50;;;;;;5093193;28;20651;-86
2022/05/17 13:18:33;;;;;;;1.10;0.80;;;23.30;84.30;;;;;;5092842;28;20194;-85
2022/05/17 13:21:01;;;;;;;0.80;0.60;;;23.20;86.60;;;;;;5093135;28;20698;-86
2022/05/17 13:23:30;;;;;;;3.53;0.77;;;23.20;84.10;;;;;;5093115;28;20673;-85
2022/05/17 13:26:00;;;;;;;0.70;0.60;;;23.20;84.50;;;;;;5093237;28;20455;-86
2022/05/17 13:28:31;;;;;;;0.80;0.80;;;23.10;86.00;;;;;;5092954;28;20209;-86